sensor_id;sensor_type;location;lat;lon;timestamp;P1;durP1;ratioP1;P2;durP2;ratioP2
71572;SDS011;59408;51.032;9.410;2023-05-10T00:00:37;9.70;;;4.90;;
71572;SDS011;59408;51.032;9.410;2023-05-10T00:03:03;8.50;;;4.50;;
71572;SDS011;59408;51.032;9.410;2023-05-10T00:05:32;7.80;;;4.20;;
71572;SDS011;59408;51.032;9.410;2023-05-10T00:07:58;8.52;;;4.40;;
71572;SDS011;59408;51.032;9.410;2023-05-10T00:10:25;7.60;;;3.97;;
71572;SDS011;59408;51.032;9.410;2023-05-10T00:12:51;7.97;;;4.07;;
71572;SDS011;59408;51.032;9.410;2023-05-10T00:15:18;8.82;;;4.15;;
71572;SDS011;59408;51.032;9.410;2023-05-10T00:17:44;7.80;;;4.03;;
71572;SDS011;59408;51.032;9.410;2023-05-10T00:20:11;7.15;;;3.50;;
71572;SDS011;59408;51.032;9.410;2023-05-10T00:22:39;6.23;;;3.23;;
71572;SDS011;59408;51.032;9.410;2023-05-10T00:25:06;6.90;;;3.70;;
71572;SDS011;59408;51.032;9.410;2023-05-10T00:27:34;7.20;;;3.50;;
71572;SDS011;59408;51.032;9.410;2023-05-10T00:30:01;7.10;;;3.30;;
71572;SDS011;59408;51.032;9.410;2023-05-10T00:32:27;6.57;;;3.38;;
71572;SDS011;59408;51.032;9.410;2023-05-10T00:34:54;7.60;;;3.37;;
71572;SDS011;59408;51.032;9.410;2023-05-10T00:37:21;6.82;;;3.25;;
71572;SDS011;59408;51.032;9.410;2023-05-10T00:39:49;7.20;;;3.47;;
71572;SDS011;59408;51.032;9.410;2023-05-10T00:42:15;6.30;;;3.10;;
71572;SDS011;59408;51.032;9.410;2023-05-10T00:44:42;5.70;;;2.90;;
71572;SDS011;59408;51.032;9.410;2023-05-10T00:47:08;6.10;;;2.63;;
71572;SDS011;59408;51.032;9.410;2023-05-10T00:49:36;5.20;;;2.30;;
71572;SDS011;59408;51.032;9.410;2023-05-10T00:52:03;6.10;;;2.42;;
71572;SDS011;59408;51.032;9.410;2023-05-10T00:54:29;4.80;;;2.00;;
71572;SDS011;59408;51.032;9.410;2023-05-10T00:56:58;6.78;;;2.33;;
71572;SDS011;59408;51.032;9.410;2023-05-10T00:59:24;5.80;;;2.20;;
71572;SDS011;59408;51.032;9.410;2023-05-10T01:01:51;5.38;;;1.95;;
71572;SDS011;59408;51.032;9.410;2023-05-10T01:04:18;4.45;;;1.60;;
71572;SDS011;59408;51.032;9.410;2023-05-10T01:06:45;5.00;;;2.10;;
71572;SDS011;59408;51.032;9.410;2023-05-10T01:09:11;5.45;;;2.60;;
71572;SDS011;59408;51.032;9.410;2023-05-10T01:11:38;5.27;;;2.20;;
71572;SDS011;59408;51.032;9.410;2023-05-10T01:14:07;4.72;;;1.63;;
71572;SDS011;59408;51.032;9.410;2023-05-10T01:16:36;5.00;;;1.80;;
71572;SDS011;59408;51.032;9.410;2023-05-10T01:19:04;5.38;;;2.20;;
71572;SDS011;59408;51.032;9.410;2023-05-10T01:21:37;4.60;;;1.85;;
71572;SDS011;59408;51.032;9.410;2023-05-10T01:24:21;4.50;;;1.50;;
71572;SDS011;59408;51.032;9.410;2023-05-10T01:30:05;4.45;;;1.70;;
71572;SDS011;59408;51.032;9.410;2023-05-10T01:32:44;3.85;;;1.38;;
71572;SDS011;59408;51.032;9.410;2023-05-10T01:35:19;5.05;;;1.60;;
71572;SDS011;59408;51.032;9.410;2023-05-10T01:37:56;4.57;;;1.77;;
71572;SDS011;59408;51.032;9.410;2023-05-10T01:40:32;4.80;;;1.70;;
71572;SDS011;59408;51.032;9.410;2023-05-10T01:43:03;4.93;;;1.60;;
71572;SDS011;59408;51.032;9.410;2023-05-10T01:45:36;3.97;;;1.20;;
71572;SDS011;59408;51.032;9.410;2023-05-10T01:48:09;3.78;;;1.25;;
71572;SDS011;59408;51.032;9.410;2023-05-10T01:50:37;4.03;;;0.93;;
71572;SDS011;59408;51.032;9.410;2023-05-10T01:53:10;4.45;;;1.15;;
71572;SDS011;59408;51.032;9.410;2023-05-10T01:55:39;3.67;;;1.48;;
71572;SDS011;59408;51.032;9.410;2023-05-10T01:58:13;3.83;;;1.10;;
71572;SDS011;59408;51.032;9.410;2023-05-10T02:00:42;3.50;;;1.00;;
71572;SDS011;59408;51.032;9.410;2023-05-10T02:03:12;3.67;;;1.20;;
71572;SDS011;59408;51.032;9.410;2023-05-10T02:05:41;4.10;;;1.00;;
71572;SDS011;59408;51.032;9.410;2023-05-10T02:08:10;4.10;;;1.15;;
71572;SDS011;59408;51.032;9.410;2023-05-10T02:10:40;4.10;;;1.40;;
71572;SDS011;59408;51.032;9.410;2023-05-10T02:13:08;4.32;;;1.55;;
71572;SDS011;59408;51.032;9.410;2023-05-10T02:15:37;3.75;;;1.45;;
71572;SDS011;59408;51.032;9.410;2023-05-10T02:18:06;5.13;;;1.33;;
71572;SDS011;59408;51.032;9.410;2023-05-10T02:20:36;3.55;;;1.10;;
71572;SDS011;59408;51.032;9.410;2023-05-10T02:23:04;4.30;;;1.30;;
71572;SDS011;59408;51.032;9.410;2023-05-10T02:25:33;3.22;;;1.00;;
71572;SDS011;59408;51.032;9.410;2023-05-10T02:28:01;3.30;;;1.00;;
71572;SDS011;59408;51.032;9.410;2023-05-10T02:30:29;3.50;;;1.17;;
71572;SDS011;59408;51.032;9.410;2023-05-10T02:32:58;3.58;;;1.20;;
71572;SDS011;59408;51.032;9.410;2023-05-10T02:35:25;3.45;;;1.25;;
71572;SDS011;59408;51.032;9.410;2023-05-10T02:37:54;4.03;;;1.25;;
71572;SDS011;59408;51.032;9.410;2023-05-10T02:40:22;4.47;;;1.23;;
71572;SDS011;59408;51.032;9.410;2023-05-10T02:42:54;3.40;;;1.23;;
71572;SDS011;59408;51.032;9.410;2023-05-10T02:45:23;3.78;;;1.20;;
71572;SDS011;59408;51.032;9.410;2023-05-10T02:47:53;3.78;;;1.35;;
71572;SDS011;59408;51.032;9.410;2023-05-10T02:50:20;3.58;;;1.10;;
71572;SDS011;59408;51.032;9.410;2023-05-10T02:52:49;3.53;;;1.27;;
71572;SDS011;59408;51.032;9.410;2023-05-10T02:55:19;4.13;;;1.50;;
71572;SDS011;59408;51.032;9.410;2023-05-10T02:57:51;3.17;;;1.08;;
71572;SDS011;59408;51.032;9.410;2023-05-10T03:00:23;3.55;;;1.20;;
71572;SDS011;59408;51.032;9.410;2023-05-10T03:02:51;4.78;;;1.00;;
71572;SDS011;59408;51.032;9.410;2023-05-10T03:05:18;3.88;;;1.00;;
71572;SDS011;59408;51.032;9.410;2023-05-10T03:07:44;3.97;;;1.40;;
71572;SDS011;59408;51.032;9.410;2023-05-10T03:10:12;4.28;;;1.20;;
71572;SDS011;59408;51.032;9.410;2023-05-10T03:12:50;3.95;;;1.10;;
71572;SDS011;59408;51.032;9.410;2023-05-10T03:15:30;3.50;;;1.10;;
71572;SDS011;59408;51.032;9.410;2023-05-10T03:18:04;4.60;;;1.40;;
71572;SDS011;59408;51.032;9.410;2023-05-10T03:20:35;4.50;;;1.30;;
71572;SDS011;59408;51.032;9.410;2023-05-10T03:23:07;3.40;;;1.00;;
71572;SDS011;59408;51.032;9.410;2023-05-10T03:25:38;3.88;;;1.20;;
71572;SDS011;59408;51.032;9.410;2023-05-10T03:28:07;3.10;;;0.80;;
71572;SDS011;59408;51.032;9.410;2023-05-10T03:30:35;3.00;;;0.80;;
71572;SDS011;59408;51.032;9.410;2023-05-10T03:33:06;3.50;;;0.73;;
71572;SDS011;59408;51.032;9.410;2023-05-10T03:35:32;2.60;;;0.60;;
71572;SDS011;59408;51.032;9.410;2023-05-10T03:37:59;4.03;;;0.75;;
71572;SDS011;59408;51.032;9.410;2023-05-10T03:40:31;2.15;;;0.60;;
71572;SDS011;59408;51.032;9.410;2023-05-10T03:42:58;2.15;;;0.70;;
71572;SDS011;59408;51.032;9.410;2023-05-10T03:45:26;3.10;;;0.60;;
71572;SDS011;59408;51.032;9.410;2023-05-10T03:47:53;2.55;;;0.60;;
71572;SDS011;59408;51.032;9.410;2023-05-10T03:50:20;2.80;;;0.70;;
71572;SDS011;59408;51.032;9.410;2023-05-10T03:52:46;3.80;;;0.98;;
71572;SDS011;59408;51.032;9.410;2023-05-10T03:55:13;4.15;;;1.20;;
71572;SDS011;59408;51.032;9.410;2023-05-10T03:57:39;4.07;;;1.27;;
71572;SDS011;59408;51.032;9.410;2023-05-10T04:00:06;4.55;;;1.42;;
71572;SDS011;59408;51.032;9.410;2023-05-10T04:02:35;4.35;;;1.70;;
71572;SDS011;59408;51.032;9.410;2023-05-10T04:05:02;4.82;;;1.90;;
71572;SDS011;59408;51.032;9.410;2023-05-10T04:07:28;4.78;;;1.70;;
71572;SDS011;59408;51.032;9.410;2023-05-10T04:09:55;4.73;;;1.53;;
71572;SDS011;59408;51.032;9.410;2023-05-10T04:12:21;5.13;;;1.85;;
71572;SDS011;59408;51.032;9.410;2023-05-10T04:14:48;6.70;;;2.20;;
71572;SDS011;59408;51.032;9.410;2023-05-10T04:17:14;5.13;;;2.40;;
71572;SDS011;59408;51.032;9.410;2023-05-10T04:19:43;5.13;;;2.03;;
71572;SDS011;59408;51.032;9.410;2023-05-10T04:22:09;5.30;;;2.30;;
71572;SDS011;59408;51.032;9.410;2023-05-10T04:24:36;6.82;;;2.63;;
71572;SDS011;59408;51.032;9.410;2023-05-10T04:27:02;6.35;;;2.90;;
71572;SDS011;59408;51.032;9.410;2023-05-10T04:29:29;5.88;;;2.80;;
71572;SDS011;59408;51.032;9.410;2023-05-10T04:31:55;6.72;;;3.17;;
71572;SDS011;59408;51.032;9.410;2023-05-10T04:34:22;5.53;;;2.50;;
71572;SDS011;59408;51.032;9.410;2023-05-10T04:36:50;6.55;;;3.00;;
71572;SDS011;59408;51.032;9.410;2023-05-10T04:39:16;6.25;;;2.70;;
71572;SDS011;59408;51.032;9.410;2023-05-10T04:41:43;5.53;;;2.28;;
71572;SDS011;59408;51.032;9.410;2023-05-10T04:44:10;6.30;;;3.00;;
71572;SDS011;59408;51.032;9.410;2023-05-10T04:46:36;6.97;;;2.70;;
71572;SDS011;59408;51.032;9.410;2023-05-10T04:49:03;6.60;;;2.58;;
71572;SDS011;59408;51.032;9.410;2023-05-10T04:51:29;6.00;;;3.00;;
71572;SDS011;59408;51.032;9.410;2023-05-10T04:53:57;6.50;;;2.63;;
71572;SDS011;59408;51.032;9.410;2023-05-10T04:56:32;6.30;;;2.70;;
71572;SDS011;59408;51.032;9.410;2023-05-10T04:58:58;5.87;;;2.50;;
71572;SDS011;59408;51.032;9.410;2023-05-10T05:01:25;6.20;;;2.70;;
71572;SDS011;59408;51.032;9.410;2023-05-10T05:03:52;5.80;;;2.65;;
71572;SDS011;59408;51.032;9.410;2023-05-10T05:06:18;7.00;;;2.80;;
71572;SDS011;59408;51.032;9.410;2023-05-10T05:08:45;5.78;;;2.40;;
71572;SDS011;59408;51.032;9.410;2023-05-10T05:11:13;6.00;;;2.40;;
71572;SDS011;59408;51.032;9.410;2023-05-10T05:13:39;5.85;;;2.50;;
71572;SDS011;59408;51.032;9.410;2023-05-10T05:16:06;5.25;;;2.20;;
71572;SDS011;59408;51.032;9.410;2023-05-10T05:18:33;6.35;;;2.30;;
71572;SDS011;59408;51.032;9.410;2023-05-10T05:20:59;6.05;;;2.30;;
71572;SDS011;59408;51.032;9.410;2023-05-10T05:23:26;5.10;;;2.10;;
71572;SDS011;59408;51.032;9.410;2023-05-10T05:25:53;4.95;;;2.10;;
71572;SDS011;59408;51.032;9.410;2023-05-10T05:28:21;6.05;;;1.90;;
71572;SDS011;59408;51.032;9.410;2023-05-10T05:30:48;4.95;;;2.00;;
71572;SDS011;59408;51.032;9.410;2023-05-10T05:33:14;5.32;;;2.03;;
71572;SDS011;59408;51.032;9.410;2023-05-10T05:35:41;5.80;;;2.07;;
71572;SDS011;59408;51.032;9.410;2023-05-10T05:38:07;5.22;;;2.20;;
71572;SDS011;59408;51.032;9.410;2023-05-10T05:40:34;5.35;;;1.80;;
71572;SDS011;59408;51.032;9.410;2023-05-10T05:43:01;5.55;;;2.30;;
71572;SDS011;59408;51.032;9.410;2023-05-10T05:45:29;5.25;;;2.05;;
71572;SDS011;59408;51.032;9.410;2023-05-10T05:47:55;4.80;;;1.90;;
71572;SDS011;59408;51.032;9.410;2023-05-10T05:50:22;4.80;;;1.90;;
71572;SDS011;59408;51.032;9.410;2023-05-10T05:52:48;5.22;;;1.90;;
71572;SDS011;59408;51.032;9.410;2023-05-10T05:55:15;4.95;;;2.05;;
71572;SDS011;59408;51.032;9.410;2023-05-10T05:57:42;5.20;;;2.13;;
71572;SDS011;59408;51.032;9.410;2023-05-10T06:00:09;5.20;;;2.30;;
71572;SDS011;59408;51.032;9.410;2023-05-10T06:02:37;5.72;;;2.40;;
71572;SDS011;59408;51.032;9.410;2023-05-10T06:05:05;7.13;;;2.60;;
71572;SDS011;59408;51.032;9.410;2023-05-10T06:07:32;5.97;;;2.45;;
71572;SDS011;59408;51.032;9.410;2023-05-10T06:09:58;6.55;;;2.95;;
71572;SDS011;59408;51.032;9.410;2023-05-10T06:12:25;6.00;;;2.63;;
71572;SDS011;59408;51.032;9.410;2023-05-10T06:14:51;6.57;;;2.67;;
71572;SDS011;59408;51.032;9.410;2023-05-10T06:17:18;6.30;;;2.70;;
71572;SDS011;59408;51.032;9.410;2023-05-10T06:19:46;5.93;;;2.83;;
71572;SDS011;59408;51.032;9.410;2023-05-10T06:22:12;5.38;;;2.33;;
71572;SDS011;59408;51.032;9.410;2023-05-10T06:24:39;6.50;;;2.23;;
71572;SDS011;59408;51.032;9.410;2023-05-10T06:27:06;5.50;;;2.50;;
71572;SDS011;59408;51.032;9.410;2023-05-10T06:29:32;6.32;;;2.88;;
71572;SDS011;59408;51.032;9.410;2023-05-10T06:31:59;5.65;;;2.50;;
71572;SDS011;59408;51.032;9.410;2023-05-10T06:34:25;6.32;;;2.90;;
71572;SDS011;59408;51.032;9.410;2023-05-10T06:36:53;7.47;;;2.73;;
71572;SDS011;59408;51.032;9.410;2023-05-10T06:39:20;5.82;;;2.63;;
71572;SDS011;59408;51.032;9.410;2023-05-10T06:41:46;6.47;;;2.65;;
71572;SDS011;59408;51.032;9.410;2023-05-10T06:44:13;6.47;;;2.90;;
71572;SDS011;59408;51.032;9.410;2023-05-10T06:46:39;6.65;;;2.60;;
71572;SDS011;59408;51.032;9.410;2023-05-10T06:49:06;6.90;;;2.53;;
71572;SDS011;59408;51.032;9.410;2023-05-10T06:51:33;6.55;;;2.42;;
71572;SDS011;59408;51.032;9.410;2023-05-10T06:54:01;5.43;;;2.33;;
71572;SDS011;59408;51.032;9.410;2023-05-10T06:56:28;6.30;;;2.75;;
71572;SDS011;59408;51.032;9.410;2023-05-10T06:58:54;7.13;;;2.50;;
71572;SDS011;59408;51.032;9.410;2023-05-10T07:01:21;5.67;;;2.60;;
71572;SDS011;59408;51.032;9.410;2023-05-10T07:03:47;6.03;;;2.53;;
71572;SDS011;59408;51.032;9.410;2023-05-10T07:06:14;5.82;;;2.33;;
71572;SDS011;59408;51.032;9.410;2023-05-10T07:08:57;5.70;;;2.50;;
71572;SDS011;59408;51.032;9.410;2023-05-10T07:11:25;6.28;;;2.58;;
71572;SDS011;59408;51.032;9.410;2023-05-10T07:13:52;5.83;;;2.60;;
71572;SDS011;59408;51.032;9.410;2023-05-10T07:16:19;7.15;;;2.47;;
71572;SDS011;59408;51.032;9.410;2023-05-10T07:18:45;6.57;;;2.53;;
71572;SDS011;59408;51.032;9.410;2023-05-10T07:21:12;8.77;;;2.72;;
71572;SDS011;59408;51.032;9.410;2023-05-10T07:23:38;5.82;;;2.65;;
71572;SDS011;59408;51.032;9.410;2023-05-10T07:26:06;6.20;;;2.50;;
71572;SDS011;59408;51.032;9.410;2023-05-10T07:28:34;7.43;;;2.90;;
71572;SDS011;59408;51.032;9.410;2023-05-10T07:31:01;5.60;;;2.45;;
71572;SDS011;59408;51.032;9.410;2023-05-10T07:33:27;6.15;;;2.72;;
71572;SDS011;59408;51.032;9.410;2023-05-10T07:35:54;6.45;;;2.58;;
71572;SDS011;59408;51.032;9.410;2023-05-10T07:38:21;6.47;;;2.67;;
71572;SDS011;59408;51.032;9.410;2023-05-10T07:40:47;6.75;;;3.03;;
71572;SDS011;59408;51.032;9.410;2023-05-10T07:43:14;5.90;;;2.33;;
71572;SDS011;59408;51.032;9.410;2023-05-10T07:45:42;6.68;;;2.20;;
71572;SDS011;59408;51.032;9.410;2023-05-10T07:48:09;5.80;;;2.63;;
71572;SDS011;59408;51.032;9.410;2023-05-10T07:50:35;5.97;;;2.30;;
71572;SDS011;59408;51.032;9.410;2023-05-10T07:53:02;6.60;;;2.30;;
71572;SDS011;59408;51.032;9.410;2023-05-10T07:55:28;6.18;;;2.75;;
71572;SDS011;59408;51.032;9.410;2023-05-10T07:57:55;6.03;;;2.47;;
71572;SDS011;59408;51.032;9.410;2023-05-10T08:00:22;5.93;;;2.55;;
71572;SDS011;59408;51.032;9.410;2023-05-10T08:02:50;6.53;;;2.80;;
71572;SDS011;59408;51.032;9.410;2023-05-10T08:05:17;7.47;;;2.70;;
71572;SDS011;59408;51.032;9.410;2023-05-10T08:07:44;6.10;;;2.40;;
71572;SDS011;59408;51.032;9.410;2023-05-10T08:10:10;5.20;;;2.17;;
71572;SDS011;59408;51.032;9.410;2023-05-10T08:12:37;8.05;;;2.70;;
71572;SDS011;59408;51.032;9.410;2023-05-10T08:15:04;6.00;;;2.00;;
71572;SDS011;59408;51.032;9.410;2023-05-10T08:17:31;5.53;;;2.20;;
71572;SDS011;59408;51.032;9.410;2023-05-10T08:19:59;5.18;;;1.90;;
71572;SDS011;59408;51.032;9.410;2023-05-10T08:22:26;5.88;;;1.75;;
71572;SDS011;59408;51.032;9.410;2023-05-10T08:24:53;4.40;;;1.67;;
71572;SDS011;59408;51.032;9.410;2023-05-10T08:27:19;5.60;;;1.90;;
71572;SDS011;59408;51.032;9.410;2023-05-10T08:29:46;4.57;;;1.60;;
71572;SDS011;59408;51.032;9.410;2023-05-10T08:32:15;4.40;;;1.45;;
71572;SDS011;59408;51.032;9.410;2023-05-10T08:34:42;4.20;;;1.50;;
71572;SDS011;59408;51.032;9.410;2023-05-10T08:37:10;5.05;;;1.55;;
71572;SDS011;59408;51.032;9.410;2023-05-10T08:39:37;4.00;;;1.43;;
71572;SDS011;59408;51.032;9.410;2023-05-10T08:42:04;4.50;;;1.65;;
71572;SDS011;59408;51.032;9.410;2023-05-10T08:44:32;4.40;;;1.33;;
71572;SDS011;59408;51.032;9.410;2023-05-10T08:47:00;4.03;;;1.20;;
71572;SDS011;59408;51.032;9.410;2023-05-10T08:49:31;5.75;;;1.30;;
71572;SDS011;59408;51.032;9.410;2023-05-10T08:51:58;3.03;;;0.97;;
71572;SDS011;59408;51.032;9.410;2023-05-10T08:54:29;5.03;;;1.30;;
71572;SDS011;59408;51.032;9.410;2023-05-10T08:56:56;3.63;;;1.20;;
71572;SDS011;59408;51.032;9.410;2023-05-10T08:59:23;4.10;;;1.60;;
71572;SDS011;59408;51.032;9.410;2023-05-10T09:01:49;4.55;;;1.45;;
71572;SDS011;59408;51.032;9.410;2023-05-10T09:04:17;5.67;;;1.43;;
71572;SDS011;59408;51.032;9.410;2023-05-10T09:06:44;3.97;;;1.27;;
71572;SDS011;59408;51.032;9.410;2023-05-10T09:09:10;4.25;;;1.30;;
71572;SDS011;59408;51.032;9.410;2023-05-10T09:11:39;4.43;;;1.40;;
71572;SDS011;59408;51.032;9.410;2023-05-10T09:14:06;5.20;;;1.20;;
71572;SDS011;59408;51.032;9.410;2023-05-10T09:16:33;4.00;;;1.40;;
71572;SDS011;59408;51.032;9.410;2023-05-10T09:19:00;4.78;;;1.30;;
71572;SDS011;59408;51.032;9.410;2023-05-10T09:21:26;3.80;;;1.20;;
71572;SDS011;59408;51.032;9.410;2023-05-10T09:23:53;4.57;;;1.30;;
71572;SDS011;59408;51.032;9.410;2023-05-10T09:26:21;4.93;;;1.50;;
71572;SDS011;59408;51.032;9.410;2023-05-10T09:28:53;4.20;;;1.47;;
71572;SDS011;59408;51.032;9.410;2023-05-10T09:31:21;3.80;;;1.25;;
71572;SDS011;59408;51.032;9.410;2023-05-10T09:33:49;4.03;;;1.60;;
71572;SDS011;59408;51.032;9.410;2023-05-10T09:36:16;3.72;;;1.52;;
71572;SDS011;59408;51.032;9.410;2023-05-10T09:38:45;5.32;;;1.20;;
71572;SDS011;59408;51.032;9.410;2023-05-10T09:41:16;3.50;;;1.20;;
71572;SDS011;59408;51.032;9.410;2023-05-10T09:43:43;4.30;;;1.20;;
71572;SDS011;59408;51.032;9.410;2023-05-10T09:46:11;4.53;;;1.33;;
71572;SDS011;59408;51.032;9.410;2023-05-10T09:48:40;3.85;;;1.30;;
71572;SDS011;59408;51.032;9.410;2023-05-10T09:51:08;5.95;;;1.52;;
71572;SDS011;59408;51.032;9.410;2023-05-10T09:53:35;4.20;;;1.43;;
71572;SDS011;59408;51.032;9.410;2023-05-10T09:56:01;5.18;;;1.40;;
71572;SDS011;59408;51.032;9.410;2023-05-10T09:58:28;4.72;;;1.30;;
71572;SDS011;59408;51.032;9.410;2023-05-10T10:00:55;3.70;;;1.30;;
71572;SDS011;59408;51.032;9.410;2023-05-10T10:03:22;3.58;;;1.30;;
71572;SDS011;59408;51.032;9.410;2023-05-10T10:05:49;4.20;;;1.20;;
71572;SDS011;59408;51.032;9.410;2023-05-10T10:08:17;4.00;;;1.30;;
71572;SDS011;59408;51.032;9.410;2023-05-10T10:10:43;4.13;;;1.48;;
71572;SDS011;59408;51.032;9.410;2023-05-10T10:13:11;3.65;;;1.55;;
71572;SDS011;59408;51.032;9.410;2023-05-10T10:15:38;4.00;;;1.52;;
71572;SDS011;59408;51.032;9.410;2023-05-10T10:18:05;4.33;;;1.37;;
71572;SDS011;59408;51.032;9.410;2023-05-10T10:20:34;3.75;;;1.20;;
71572;SDS011;59408;51.032;9.410;2023-05-10T10:23:03;4.22;;;1.40;;
71572;SDS011;59408;51.032;9.410;2023-05-10T10:25:30;5.40;;;1.50;;
71572;SDS011;59408;51.032;9.410;2023-05-10T10:28:00;4.03;;;1.50;;
71572;SDS011;59408;51.032;9.410;2023-05-10T10:30:38;3.63;;;1.50;;
71572;SDS011;59408;51.032;9.410;2023-05-10T10:33:18;4.35;;;1.45;;
71572;SDS011;59408;51.032;9.410;2023-05-10T10:36:01;4.60;;;1.42;;
71572;SDS011;59408;51.032;9.410;2023-05-10T10:38:35;5.22;;;1.58;;
71572;SDS011;59408;51.032;9.410;2023-05-10T10:41:03;4.00;;;1.30;;
71572;SDS011;59408;51.032;9.410;2023-05-10T10:43:35;4.10;;;1.40;;
71572;SDS011;59408;51.032;9.410;2023-05-10T10:46:09;4.38;;;1.40;;
71572;SDS011;59408;51.032;9.410;2023-05-10T10:48:36;3.83;;;1.10;;
71572;SDS011;59408;51.032;9.410;2023-05-10T10:51:04;4.65;;;1.60;;
71572;SDS011;59408;51.032;9.410;2023-05-10T10:53:31;4.85;;;1.60;;
71572;SDS011;59408;51.032;9.410;2023-05-10T10:56:05;5.23;;;1.60;;
71572;SDS011;59408;51.032;9.410;2023-05-10T10:58:33;5.57;;;1.90;;
71572;SDS011;59408;51.032;9.410;2023-05-10T11:01:13;4.57;;;1.80;;
71572;SDS011;59408;51.032;9.410;2023-05-10T11:03:41;5.35;;;2.13;;
71572;SDS011;59408;51.032;9.410;2023-05-10T11:06:42;4.47;;;1.67;;
71572;SDS011;59408;51.032;9.410;2023-05-10T11:09:09;4.87;;;1.90;;
71572;SDS011;59408;51.032;9.410;2023-05-10T11:11:43;6.40;;;1.52;;
71572;SDS011;59408;51.032;9.410;2023-05-10T11:14:15;4.25;;;1.48;;
71572;SDS011;59408;51.032;9.410;2023-05-10T11:16:46;5.00;;;1.52;;
71572;SDS011;59408;51.032;9.410;2023-05-10T11:19:13;5.50;;;1.70;;
71572;SDS011;59408;51.032;9.410;2023-05-10T11:21:48;5.40;;;1.87;;
71572;SDS011;59408;51.032;9.410;2023-05-10T11:24:16;5.25;;;1.60;;
71572;SDS011;59408;51.032;9.410;2023-05-10T11:26:44;7.55;;;1.75;;
71572;SDS011;59408;51.032;9.410;2023-05-10T11:29:12;5.75;;;1.73;;
71572;SDS011;59408;51.032;9.410;2023-05-10T11:31:42;4.70;;;1.52;;
71572;SDS011;59408;51.032;9.410;2023-05-10T11:34:10;5.30;;;1.80;;
71572;SDS011;59408;51.032;9.410;2023-05-10T11:36:37;4.50;;;1.38;;
71572;SDS011;59408;51.032;9.410;2023-05-10T11:39:05;6.15;;;1.40;;
71572;SDS011;59408;51.032;9.410;2023-05-10T11:41:31;7.03;;;1.75;;
71572;SDS011;59408;51.032;9.410;2023-05-10T11:43:58;6.70;;;1.60;;
71572;SDS011;59408;51.032;9.410;2023-05-10T11:46:25;6.10;;;1.60;;
71572;SDS011;59408;51.032;9.410;2023-05-10T11:48:55;3.88;;;1.10;;
71572;SDS011;59408;51.032;9.410;2023-05-10T11:51:24;6.75;;;1.67;;
71572;SDS011;59408;51.032;9.410;2023-05-10T11:53:52;5.55;;;1.40;;
71572;SDS011;59408;51.032;9.410;2023-05-10T11:56:21;13.18;;;1.63;;
71572;SDS011;59408;51.032;9.410;2023-05-10T11:58:52;4.40;;;1.30;;
71572;SDS011;59408;51.032;9.410;2023-05-10T12:01:20;4.38;;;1.40;;
71572;SDS011;59408;51.032;9.410;2023-05-10T12:03:47;5.20;;;1.73;;
71572;SDS011;59408;51.032;9.410;2023-05-10T12:06:15;5.93;;;1.50;;
71572;SDS011;59408;51.032;9.410;2023-05-10T12:08:44;6.18;;;1.90;;
71572;SDS011;59408;51.032;9.410;2023-05-10T12:11:11;6.53;;;1.87;;
71572;SDS011;59408;51.032;9.410;2023-05-10T12:13:40;6.88;;;1.70;;
71572;SDS011;59408;51.032;9.410;2023-05-10T12:16:17;5.30;;;1.75;;
71572;SDS011;59408;51.032;9.410;2023-05-10T12:18:45;4.85;;;1.42;;
71572;SDS011;59408;51.032;9.410;2023-05-10T12:21:14;4.80;;;1.52;;
71572;SDS011;59408;51.032;9.410;2023-05-10T12:23:41;5.30;;;1.60;;
71572;SDS011;59408;51.032;9.410;2023-05-10T12:26:08;5.30;;;2.00;;
71572;SDS011;59408;51.032;9.410;2023-05-10T12:28:36;4.90;;;1.65;;
71572;SDS011;59408;51.032;9.410;2023-05-10T12:31:05;5.15;;;1.55;;
71572;SDS011;59408;51.032;9.410;2023-05-10T12:33:36;6.60;;;1.67;;
71572;SDS011;59408;51.032;9.410;2023-05-10T12:36:03;5.43;;;1.73;;
71572;SDS011;59408;51.032;9.410;2023-05-10T12:38:31;6.35;;;1.83;;
71572;SDS011;59408;51.032;9.410;2023-05-10T12:40:59;5.03;;;1.80;;
71572;SDS011;59408;51.032;9.410;2023-05-10T12:43:27;7.40;;;1.70;;
71572;SDS011;59408;51.032;9.410;2023-05-10T12:45:53;5.32;;;1.67;;
71572;SDS011;59408;51.032;9.410;2023-05-10T12:48:21;5.60;;;1.70;;
71572;SDS011;59408;51.032;9.410;2023-05-10T12:50:48;4.50;;;1.60;;
71572;SDS011;59408;51.032;9.410;2023-05-10T12:53:15;5.30;;;1.58;;
71572;SDS011;59408;51.032;9.410;2023-05-10T12:55:42;4.90;;;1.77;;
71572;SDS011;59408;51.032;9.410;2023-05-10T12:58:09;6.13;;;1.95;;
71572;SDS011;59408;51.032;9.410;2023-05-10T13:00:39;6.27;;;1.83;;
71572;SDS011;59408;51.032;9.410;2023-05-10T13:03:05;5.72;;;1.92;;
71572;SDS011;59408;51.032;9.410;2023-05-10T13:05:33;5.15;;;2.00;;
71572;SDS011;59408;51.032;9.410;2023-05-10T13:08:00;7.03;;;2.08;;
71572;SDS011;59408;51.032;9.410;2023-05-10T13:10:28;6.03;;;2.22;;
71572;SDS011;59408;51.032;9.410;2023-05-10T13:12:55;5.70;;;2.30;;
71572;SDS011;59408;51.032;9.410;2023-05-10T13:15:22;6.35;;;2.10;;
71572;SDS011;59408;51.032;9.410;2023-05-10T13:17:48;5.25;;;2.03;;
71572;SDS011;59408;51.032;9.410;2023-05-10T13:20:15;5.88;;;2.20;;
71572;SDS011;59408;51.032;9.410;2023-05-10T13:22:44;5.63;;;2.25;;
71572;SDS011;59408;51.032;9.410;2023-05-10T13:25:11;5.33;;;2.17;;
71572;SDS011;59408;51.032;9.410;2023-05-10T13:27:38;5.53;;;2.25;;
71572;SDS011;59408;51.032;9.410;2023-05-10T13:30:05;6.28;;;2.35;;
71572;SDS011;59408;51.032;9.410;2023-05-10T13:32:33;6.75;;;2.38;;
71572;SDS011;59408;51.032;9.410;2023-05-10T13:35:00;5.97;;;2.22;;
71572;SDS011;59408;51.032;9.410;2023-05-10T13:37:26;5.50;;;2.23;;
71572;SDS011;59408;51.032;9.410;2023-05-10T13:39:54;6.43;;;2.50;;
71572;SDS011;59408;51.032;9.410;2023-05-10T13:42:21;6.38;;;2.50;;
71572;SDS011;59408;51.032;9.410;2023-05-10T13:44:48;5.93;;;2.40;;
71572;SDS011;59408;51.032;9.410;2023-05-10T13:47:15;5.55;;;2.20;;
71572;SDS011;59408;51.032;9.410;2023-05-10T13:49:41;5.97;;;2.10;;
71572;SDS011;59408;51.032;9.410;2023-05-10T13:52:08;5.13;;;2.00;;
71572;SDS011;59408;51.032;9.410;2023-05-10T13:54:34;6.70;;;2.08;;
71572;SDS011;59408;51.032;9.410;2023-05-10T13:57:02;6.03;;;1.98;;
71572;SDS011;59408;51.032;9.410;2023-05-10T13:59:30;6.10;;;2.67;;
71572;SDS011;59408;51.032;9.410;2023-05-10T14:01:56;5.30;;;2.10;;
71572;SDS011;59408;51.032;9.410;2023-05-10T14:04:23;6.35;;;2.40;;
71572;SDS011;59408;51.032;9.410;2023-05-10T14:06:50;6.45;;;2.55;;
71572;SDS011;59408;51.032;9.410;2023-05-10T14:09:17;6.15;;;2.80;;
71572;SDS011;59408;51.032;9.410;2023-05-10T14:11:43;6.68;;;3.35;;
71572;SDS011;59408;51.032;9.410;2023-05-10T14:14:11;6.70;;;2.70;;
71572;SDS011;59408;51.032;9.410;2023-05-10T14:16:41;8.45;;;2.80;;
71572;SDS011;59408;51.032;9.410;2023-05-10T14:19:08;32.58;;;12.60;;
71572;SDS011;59408;51.032;9.410;2023-05-10T14:21:35;9.07;;;3.65;;
71572;SDS011;59408;51.032;9.410;2023-05-10T14:24:02;20.08;;;10.05;;
71572;SDS011;59408;51.032;9.410;2023-05-10T14:26:28;21.03;;;11.40;;
71572;SDS011;59408;51.032;9.410;2023-05-10T14:28:55;15.15;;;8.55;;
71572;SDS011;59408;51.032;9.410;2023-05-10T14:31:23;14.38;;;7.38;;
71572;SDS011;59408;51.032;9.410;2023-05-10T14:33:50;10.02;;;4.50;;
71572;SDS011;59408;51.032;9.410;2023-05-10T14:36:16;7.20;;;3.28;;
71572;SDS011;59408;51.032;9.410;2023-05-10T14:38:43;8.43;;;3.00;;
71572;SDS011;59408;51.032;9.410;2023-05-10T14:41:10;6.70;;;2.67;;
71572;SDS011;59408;51.032;9.410;2023-05-10T14:43:37;5.95;;;2.15;;
71572;SDS011;59408;51.032;9.410;2023-05-10T14:46:03;8.50;;;2.10;;
71572;SDS011;59408;51.032;9.410;2023-05-10T14:48:31;6.90;;;2.10;;
71572;SDS011;59408;51.032;9.410;2023-05-10T14:50:58;6.47;;;2.20;;
71572;SDS011;59408;51.032;9.410;2023-05-10T14:53:24;6.25;;;1.90;;
71572;SDS011;59408;51.032;9.410;2023-05-10T14:55:51;6.03;;;2.00;;